createdAt,value
2022-12-18T00:02:11.880Z,-6.80
2022-12-18T00:04:38.354Z,-6.80
2022-12-18T00:07:04.881Z,-6.80
2022-12-18T00:09:40.177Z,-6.90
2022-12-18T00:14:43.184Z,-6.90
2022-12-18T00:17:09.879Z,-6.90
2022-12-18T00:19:36.366Z,-6.90
2022-12-18T00:22:03.273Z,-6.90
2022-12-18T00:24:30.227Z,-7.00
2022-12-18T00:26:56.722Z,-7.00
2022-12-18T00:29:23.654Z,-7.00
2022-12-18T00:31:50.224Z,-7.00
2022-12-18T00:34:16.745Z,-7.00
2022-12-18T00:36:46.254Z,-7.00
2022-12-18T00:39:13.134Z,-6.90
2022-12-18T00:41:58.759Z,-6.90
2022-12-18T00:44:25.224Z,-6.80
2022-12-18T00:46:52.166Z,-6.80
2022-12-18T00:49:19.944Z,-6.80
2022-12-18T00:51:47.363Z,-6.80
2022-12-18T00:54:14.439Z,-6.90
2022-12-18T00:56:48.246Z,-6.90
2022-12-18T00:59:16.187Z,-7.00
2022-12-18T01:01:43.475Z,-7.00
2022-12-18T01:04:10.094Z,-7.00
2022-12-18T01:06:36.992Z,-7.10
2022-12-18T01:09:04.117Z,-7.10
2022-12-18T01:11:30.627Z,-7.10
2022-12-18T01:13:57.185Z,-7.10
2022-12-18T01:16:24.144Z,-7.20
2022-12-18T01:18:55.255Z,-7.20
2022-12-18T01:21:22.265Z,-7.20
2022-12-18T01:23:52.782Z,-7.20
2022-12-18T01:26:19.681Z,-7.20
2022-12-18T01:28:46.207Z,-5.30
2022-12-18T01:31:18.305Z,-7.40
2022-12-18T01:33:45.109Z,-7.40
2022-12-18T01:36:17.766Z,-7.40
2022-12-18T01:38:44.811Z,-7.40
2022-12-18T01:41:12.001Z,-7.40
2022-12-18T01:43:42.810Z,-7.40
2022-12-18T01:46:10.248Z,-7.40
2022-12-18T01:48:37.294Z,-7.30
2022-12-18T01:51:03.917Z,-7.40
2022-12-18T01:53:33.077Z,-7.40
2022-12-18T01:56:00.566Z,-7.40
2022-12-18T01:58:33.738Z,-7.50
2022-12-18T02:01:00.829Z,-7.40
2022-12-18T02:03:27.425Z,-7.40
2022-12-18T02:06:06.621Z,-7.50
2022-12-18T02:08:42.569Z,-7.50
2022-12-18T02:11:13.563Z,-7.50
2022-12-18T02:13:52.619Z,-7.60
2022-12-18T02:16:39.840Z,-7.50
2022-12-18T02:19:17.497Z,-7.60
2022-12-18T02:21:49.700Z,-7.60
2022-12-18T02:24:16.559Z,-7.60
2022-12-18T02:26:46.490Z,-7.50
2022-12-18T02:29:16.410Z,-7.50
2022-12-18T02:31:46.023Z,-7.40
2022-12-18T02:34:13.540Z,-7.30
2022-12-18T02:36:41.911Z,-7.20
2022-12-18T02:39:10.182Z,-7.20
2022-12-18T02:41:37.932Z,-7.20
2022-12-18T02:44:08.136Z,-7.20
2022-12-18T02:46:40.874Z,-7.20
2022-12-18T02:49:19.571Z,-7.30
2022-12-18T02:51:54.919Z,-7.30
2022-12-18T02:54:25.756Z,-7.30
2022-12-18T02:56:55.069Z,-7.20
2022-12-18T02:59:37.194Z,-7.20
2022-12-18T03:02:09.391Z,-7.30
2022-12-18T03:04:45.056Z,-7.30
2022-12-18T03:07:16.645Z,-7.30
2022-12-18T03:09:45.290Z,-7.30
2022-12-18T03:12:29.177Z,-7.30
2022-12-18T03:15:05.064Z,-7.40
2022-12-18T03:17:32.830Z,-7.40
2022-12-18T03:20:06.874Z,-7.50
2022-12-18T03:22:34.653Z,-7.50
2022-12-18T03:25:03.380Z,-7.60
2022-12-18T03:27:30.963Z,-7.60
2022-12-18T03:30:08.722Z,-7.60
2022-12-18T03:32:48.485Z,-7.60
2022-12-18T03:35:18.690Z,-7.60
2022-12-18T03:37:45.697Z,-7.70
2022-12-18T03:40:12.793Z,-7.70
2022-12-18T03:42:48.830Z,-7.70
2022-12-18T03:45:21.818Z,-7.70
2022-12-18T03:47:51.686Z,-7.80
2022-12-18T03:50:33.497Z,-7.80
2022-12-18T03:53:15.823Z,-7.80
2022-12-18T03:55:43.528Z,-7.90
2022-12-18T03:58:12.517Z,-7.90
2022-12-18T04:00:39.615Z,-7.90
2022-12-18T04:03:09.875Z,-7.90
2022-12-18T04:05:37.875Z,-8.00
2022-12-18T04:08:05.656Z,-7.90
2022-12-18T04:10:32.528Z,-8.00
2022-12-18T04:12:59.268Z,-8.00
2022-12-18T04:15:25.888Z,-8.00
2022-12-18T04:17:52.841Z,-8.00
2022-12-18T04:20:19.378Z,-8.00
2022-12-18T04:22:46.348Z,-8.00
2022-12-18T04:25:12.952Z,-8.00
2022-12-18T04:27:39.925Z,-8.00
2022-12-18T04:30:07.248Z,-8.00
2022-12-18T04:32:34.341Z,-8.10
2022-12-18T04:35:01.239Z,-8.10
2022-12-18T04:37:27.705Z,-8.10
2022-12-18T04:39:54.587Z,-8.20
2022-12-18T04:42:21.076Z,-8.20
2022-12-18T04:44:48.027Z,-8.20
2022-12-18T04:47:14.489Z,-8.10
2022-12-18T04:49:41.384Z,-8.10
2022-12-18T04:52:07.880Z,-8.10
2022-12-18T04:54:34.781Z,-8.10
2022-12-18T04:57:01.259Z,-8.10
2022-12-18T04:59:27.758Z,-8.10
2022-12-18T05:01:54.691Z,-8.10
2022-12-18T05:04:21.340Z,-8.10
2022-12-18T05:06:48.256Z,-8.10
2022-12-18T05:09:15.184Z,-8.10
2022-12-18T05:11:41.661Z,-8.10
2022-12-18T05:14:08.560Z,-8.10
2022-12-18T05:16:35.501Z,-8.00
2022-12-18T05:19:01.972Z,-8.00
2022-12-18T05:21:28.952Z,-8.00
2022-12-18T05:23:55.428Z,-8.00
2022-12-18T05:26:22.337Z,-7.90
2022-12-18T05:28:48.829Z,-7.90
2022-12-18T05:31:16.128Z,-7.90
2022-12-18T05:33:43.042Z,-7.90
2022-12-18T05:36:10.176Z,-8.00
2022-12-18T05:38:38.270Z,-8.00
2022-12-18T05:41:05.115Z,-8.00
2022-12-18T05:43:32.240Z,-8.00
2022-12-18T05:45:58.789Z,-8.00
2022-12-18T05:48:25.792Z,-8.10
2022-12-18T05:50:52.761Z,-8.10
2022-12-18T05:53:20.763Z,-8.20
2022-12-18T05:55:48.146Z,-8.20
2022-12-18T05:58:15.242Z,-8.20
2022-12-18T06:00:43.915Z,-8.20
2022-12-18T06:03:11.845Z,-8.20
2022-12-18T06:05:42.921Z,-8.10
2022-12-18T06:08:09.938Z,-8.10
2022-12-18T06:10:36.624Z,-8.10
2022-12-18T06:13:03.818Z,-8.10
2022-12-18T06:15:30.785Z,-8.20
2022-12-18T06:17:57.695Z,-8.20
2022-12-18T06:20:26.047Z,-8.20
2022-12-18T06:22:56.051Z,-8.30
2022-12-18T06:25:22.515Z,-8.30
2022-12-18T06:27:49.400Z,-8.30
2022-12-18T06:30:16.442Z,-8.30
2022-12-18T06:32:42.905Z,-8.30
2022-12-18T06:35:09.972Z,-8.30
2022-12-18T06:37:36.526Z,-8.30
2022-12-18T06:40:03.132Z,-8.30
2022-12-18T06:42:30.128Z,-8.30
2022-12-18T06:44:56.614Z,-8.30
2022-12-18T06:47:23.142Z,-8.30
2022-12-18T06:49:50.028Z,-8.30
2022-12-18T06:52:16.519Z,-8.30
2022-12-18T06:54:43.395Z,-8.30
2022-12-18T06:57:09.852Z,-8.30
2022-12-18T06:59:36.767Z,-8.30
2022-12-18T07:02:03.272Z,-8.30
2022-12-18T07:04:31.640Z,-8.30
2022-12-18T07:06:58.368Z,-8.30
2022-12-18T07:09:25.506Z,-8.30
2022-12-18T07:11:52.716Z,-8.30
2022-12-18T07:14:19.638Z,-8.30
2022-12-18T07:16:46.248Z,-8.30
2022-12-18T07:19:12.770Z,-8.30
2022-12-18T07:21:40.150Z,-8.30
2022-12-18T07:24:07.121Z,-8.30
2022-12-18T07:26:34.022Z,-8.30
2022-12-18T07:29:00.942Z,-8.30
2022-12-18T07:31:28.409Z,-8.30
2022-12-18T07:33:55.224Z,-8.30
2022-12-18T07:36:21.795Z,-8.30
2022-12-18T07:38:49.776Z,-8.30
2022-12-18T07:41:16.832Z,-8.30
2022-12-18T07:43:43.770Z,-8.20
2022-12-18T07:46:13.185Z,-8.20
2022-12-18T07:48:41.471Z,-8.20
2022-12-18T07:51:08.325Z,-8.20
2022-12-18T07:53:35.433Z,-8.10
2022-12-18T07:58:55.884Z,-8.00
2022-12-18T08:01:22.839Z,-8.00
2022-12-18T08:03:49.517Z,-7.90
2022-12-18T08:06:19.049Z,-7.90
2022-12-18T08:08:45.518Z,-7.80
2022-12-18T08:11:12.408Z,-7.80
2022-12-18T08:13:39.296Z,-7.80
2022-12-18T08:16:07.792Z,-7.70
2022-12-18T08:18:35.536Z,-7.70
2022-12-18T08:21:28.385Z,-7.60
2022-12-18T08:23:58.081Z,-7.60
2022-12-18T08:26:25.373Z,-7.60
2022-12-18T08:28:52.536Z,-7.60
2022-12-18T08:31:19.753Z,-7.50
2022-12-18T08:33:48.694Z,-7.40
2022-12-18T08:36:15.602Z,-7.30
2022-12-18T08:38:42.154Z,-7.30
2022-12-18T08:41:10.324Z,-7.30
2022-12-18T08:43:58.196Z,-7.20
2022-12-18T08:46:25.702Z,-7.10
2022-12-18T08:48:53.315Z,-7.00
2022-12-18T08:51:20.799Z,-7.00
2022-12-18T08:53:47.601Z,-6.90
2022-12-18T08:56:14.670Z,-6.80
2022-12-18T08:58:41.982Z,-6.60
2022-12-18T09:01:12.854Z,-6.60
2022-12-18T09:03:40.415Z,-6.50
2022-12-18T09:06:07.756Z,-6.40
2022-12-18T09:08:34.659Z,-6.30
2022-12-18T09:11:01.627Z,-6.20
2022-12-18T09:13:28.168Z,-6.10
2022-12-18T09:15:55.365Z,-6.00
2022-12-18T09:18:23.121Z,-5.90
2022-12-18T09:20:51.079Z,-5.90
2022-12-18T09:23:17.601Z,-5.70
2022-12-18T09:25:44.506Z,-5.70
2022-12-18T09:28:15.542Z,-5.60
2022-12-18T09:30:43.566Z,-5.50
2022-12-18T09:33:10.526Z,-5.40
2022-12-18T09:35:37.806Z,-5.30
2022-12-18T09:38:05.068Z,-5.30
2022-12-18T09:40:37.042Z,-5.20
2022-12-18T09:43:08.211Z,-5.10
2022-12-18T09:45:41.194Z,-5.10
2022-12-18T09:48:11.557Z,-5.00
2022-12-18T09:50:39.920Z,-5.00
2022-12-18T09:53:16.158Z,-4.90
2022-12-18T09:55:44.050Z,-4.90
2022-12-18T09:58:10.798Z,-4.90
2022-12-18T10:00:37.801Z,-4.80
2022-12-18T10:03:09.971Z,-4.10
2022-12-18T10:05:47.334Z,-4.70
2022-12-18T10:08:17.778Z,-4.60
2022-12-18T10:10:49.677Z,-4.60
2022-12-18T10:13:24.534Z,-4.50
2022-12-18T10:16:06.386Z,-4.50
2022-12-18T10:18:54.795Z,-4.40
2022-12-18T10:21:29.626Z,-4.40
2022-12-18T10:23:59.159Z,-4.40
2022-12-18T10:26:26.145Z,-4.30
2022-12-18T10:28:54.551Z,-4.30
2022-12-18T10:31:24.326Z,-4.30
2022-12-18T10:33:52.160Z,-4.20
2022-12-18T10:36:18.628Z,-4.10
2022-12-18T10:38:45.604Z,-4.00
2022-12-18T10:41:31.785Z,-4.00
2022-12-18T10:44:28.238Z,-3.90
2022-12-18T10:46:56.933Z,-3.90
2022-12-18T10:49:28.655Z,-3.90
2022-12-18T10:52:07.800Z,-3.90
2022-12-18T10:54:35.814Z,-3.90
2022-12-18T10:57:16.026Z,-3.90
2022-12-18T10:59:50.997Z,-3.90
2022-12-18T11:02:37.423Z,-3.80
2022-12-18T11:05:24.102Z,-3.90
2022-12-18T11:07:51.957Z,-3.90
2022-12-18T11:10:20.028Z,-3.90
2022-12-18T11:12:47.312Z,-3.80
2022-12-18T11:15:32.130Z,-3.80
2022-12-18T11:17:59.563Z,-3.80
2022-12-18T11:20:33.666Z,-3.80
2022-12-18T11:23:12.318Z,-3.70
2022-12-18T11:25:39.176Z,-3.70
2022-12-18T11:28:26.055Z,-3.60
2022-12-18T11:31:11.516Z,-3.60
2022-12-18T11:33:58.383Z,-3.50
2022-12-18T11:36:33.066Z,-3.40
2022-12-18T11:39:02.368Z,-3.30
2022-12-18T11:41:50.054Z,-3.20
2022-12-18T11:44:19.727Z,-3.20
2022-12-18T11:46:49.115Z,-3.30
2022-12-18T11:49:20.142Z,-3.30
2022-12-18T11:51:56.629Z,-3.30
2022-12-18T11:54:23.566Z,-3.30
2022-12-18T11:57:01.976Z,-3.30
2022-12-18T11:59:28.863Z,-3.30
2022-12-18T12:01:59.714Z,-3.30
2022-12-18T12:04:46.205Z,-3.30
2022-12-18T12:07:19.095Z,-3.30
2022-12-18T12:09:56.341Z,-3.30
2022-12-18T12:12:49.070Z,-3.20
2022-12-18T12:15:37.227Z,-3.20
2022-12-18T12:18:09.603Z,-3.20
2022-12-18T12:20:57.518Z,-3.20
2022-12-18T12:23:29.944Z,-3.20
2022-12-18T12:25:56.372Z,-3.10
2022-12-18T12:28:36.765Z,-3.10
2022-12-18T12:31:03.205Z,-3.20
2022-12-18T12:33:42.712Z,-3.20
2022-12-18T12:36:18.542Z,-3.20
2022-12-18T12:38:52.604Z,-3.20
2022-12-18T12:41:39.940Z,-3.20
2022-12-18T12:44:09.309Z,-3.20
2022-12-18T12:46:38.819Z,-3.20
2022-12-18T12:49:13.201Z,-3.20
2022-12-18T12:51:41.453Z,-3.20
2022-12-18T12:54:15.676Z,-3.10
2022-12-18T12:56:46.958Z,-3.20
2022-12-18T12:59:23.803Z,-3.20
2022-12-18T13:02:10.908Z,-3.10
2022-12-18T13:04:49.881Z,-3.10
2022-12-18T13:07:29.124Z,-3.00
2022-12-18T13:13:05.383Z,-3.00
2022-12-18T13:15:39.809Z,-3.00
2022-12-18T13:18:13.177Z,-3.00
2022-12-18T13:20:50.762Z,-3.00
2022-12-18T13:23:29.904Z,-3.00
2022-12-18T13:26:12.133Z,-3.00
2022-12-18T13:28:47.869Z,-3.00
2022-12-18T13:31:33.595Z,-2.20
2022-12-18T13:34:28.001Z,-3.00
2022-12-18T13:36:56.688Z,-3.00
2022-12-18T13:42:32.057Z,-3.00
2022-12-18T13:44:58.633Z,-3.00
2022-12-18T13:47:27.216Z,-3.10
2022-12-18T13:49:53.752Z,-3.10
2022-12-18T13:52:23.403Z,-3.20
2022-12-18T13:54:57.624Z,-3.20
2022-12-18T13:57:27.038Z,-3.20
2022-12-18T13:59:53.959Z,-3.20
2022-12-18T14:02:27.723Z,-3.30
2022-12-18T14:04:54.741Z,-3.40
2022-12-18T14:07:33.049Z,-3.50
2022-12-18T14:10:25.941Z,-3.60
2022-12-18T14:12:57.556Z,-3.60
2022-12-18T14:15:27.699Z,-3.70
2022-12-18T14:17:56.489Z,-3.80
2022-12-18T14:20:23.579Z,-3.80
2022-12-18T14:22:51.160Z,-3.90
2022-12-18T14:25:23.460Z,-4.00
2022-12-18T14:27:54.348Z,-4.00
2022-12-18T14:30:24.100Z,-4.10
2022-12-18T14:33:00.717Z,-4.10
2022-12-18T14:35:27.694Z,-4.20
2022-12-18T14:37:54.914Z,-4.20
2022-12-18T14:40:21.841Z,-4.20
2022-12-18T14:42:48.361Z,-4.20
2022-12-18T14:45:42.540Z,-4.20
2022-12-18T14:48:19.062Z,-4.20
2022-12-18T14:51:04.597Z,-4.30
2022-12-18T14:53:34.312Z,-4.30
2022-12-18T14:56:00.917Z,-4.30
2022-12-18T14:58:28.399Z,-4.30
2022-12-18T15:00:55.725Z,-4.30
2022-12-18T15:03:22.900Z,-4.30
2022-12-18T15:05:50.162Z,-4.30
2022-12-18T15:08:36.435Z,-4.30
2022-12-18T15:11:04.291Z,-4.30
2022-12-18T15:13:33.107Z,-4.30
2022-12-18T15:16:04.174Z,-4.30
2022-12-18T15:18:32.911Z,-4.30
2022-12-18T15:21:00.915Z,-4.30
2022-12-18T15:23:34.976Z,-4.20
2022-12-18T15:26:07.330Z,-4.40
2022-12-18T15:28:56.963Z,-4.20
2022-12-18T15:31:24.619Z,-4.20
2022-12-18T15:33:53.086Z,-4.20
2022-12-18T15:36:25.530Z,-4.10
2022-12-18T15:38:54.220Z,-4.20
2022-12-18T15:41:24.819Z,-4.20
2022-12-18T15:43:52.395Z,-4.20
2022-12-18T15:46:25.904Z,-4.20
2022-12-18T15:48:58.089Z,-4.20
2022-12-18T15:51:33.257Z,-4.20
2022-12-18T15:54:01.575Z,-4.20
2022-12-18T15:56:46.937Z,-4.10
2022-12-18T15:59:17.913Z,-4.10
2022-12-18T16:01:45.927Z,-4.20
2022-12-18T16:04:13.449Z,-4.20
2022-12-18T16:07:05.353Z,-4.10
2022-12-18T16:09:27.035Z,-4.10
2022-12-18T16:11:53.627Z,-3.60
2022-12-18T16:14:25.173Z,-4.10
2022-12-18T16:16:53.234Z,-4.00
2022-12-18T16:19:20.085Z,-4.00
2022-12-18T16:21:47.377Z,-4.00
2022-12-18T16:24:22.742Z,-4.00
2022-12-18T16:26:50.257Z,-3.90
2022-12-18T16:29:17.346Z,-3.90
2022-12-18T16:31:44.091Z,-3.90
2022-12-18T16:34:13.437Z,-3.90
2022-12-18T16:36:40.345Z,-3.80
2022-12-18T16:39:06.822Z,-3.80
2022-12-18T16:41:33.525Z,-3.80
2022-12-18T16:44:00.811Z,-3.80
2022-12-18T16:46:27.838Z,-3.80
2022-12-18T16:48:54.409Z,-3.80
2022-12-18T16:51:20.878Z,-3.80
2022-12-18T16:53:47.837Z,-3.80
2022-12-18T16:56:14.414Z,-3.80
2022-12-18T16:58:40.938Z,-3.80
2022-12-18T17:01:09.999Z,-3.70
2022-12-18T17:03:36.611Z,-3.80
2022-12-18T17:06:04.042Z,-3.80
2022-12-18T17:08:30.644Z,-3.80
2022-12-18T17:10:57.158Z,-3.80
2022-12-18T17:13:26.516Z,-3.70
2022-12-18T17:15:53.454Z,-3.70
2022-12-18T17:18:21.312Z,-3.80
2022-12-18T17:20:47.774Z,-3.70
2022-12-18T17:23:14.447Z,-3.70
2022-12-18T17:25:41.369Z,-3.70
2022-12-18T17:28:07.839Z,-3.70
2022-12-18T17:30:34.321Z,-3.70
2022-12-18T17:33:01.229Z,-3.70
2022-12-18T17:35:27.694Z,-3.70
2022-12-18T17:37:54.304Z,-3.70
2022-12-18T17:40:21.531Z,-3.70
2022-12-18T17:42:48.023Z,-3.70
2022-12-18T17:45:14.703Z,-3.70
2022-12-18T17:47:42.473Z,-3.70
2022-12-18T17:50:09.199Z,-3.70
2022-12-18T17:52:36.293Z,-3.70
2022-12-18T17:55:03.209Z,-3.60
2022-12-18T17:57:29.740Z,-3.60
2022-12-18T17:59:56.318Z,-3.60
2022-12-18T18:02:22.969Z,-3.60
2022-12-18T18:04:49.589Z,-3.50
2022-12-18T18:07:16.107Z,-3.50
2022-12-18T18:09:42.629Z,-3.50
2022-12-18T18:12:28.377Z,-3.60
2022-12-18T18:14:54.859Z,-3.60
2022-12-18T18:17:21.959Z,-3.50
2022-12-18T18:19:51.522Z,-3.50
2022-12-18T18:22:18.740Z,-2.70
2022-12-18T18:24:46.874Z,-3.50
2022-12-18T18:27:13.414Z,-3.60
2022-12-18T18:29:40.066Z,-3.60
2022-12-18T18:32:09.721Z,-3.60
2022-12-18T18:34:36.718Z,-3.60
2022-12-18T18:37:03.988Z,-3.60
2022-12-18T18:39:30.588Z,-3.60
2022-12-18T18:41:57.142Z,-3.60
2022-12-18T18:44:25.708Z,-3.60
2022-12-18T18:46:56.341Z,-3.60
2022-12-18T18:49:24.242Z,-3.60
2022-12-18T18:51:50.988Z,-3.60
2022-12-18T18:54:17.518Z,-3.60
2022-12-18T18:57:18.766Z,-3.60
2022-12-18T18:59:31.961Z,-3.50
2022-12-18T19:02:04.197Z,-3.60
2022-12-18T19:04:32.445Z,-3.60
2022-12-18T19:06:59.158Z,-3.60
2022-12-18T19:09:26.166Z,-3.60
2022-12-18T19:12:12.186Z,-3.50
2022-12-18T19:14:38.648Z,-3.50
2022-12-18T19:17:05.126Z,-3.50
2022-12-18T19:19:32.968Z,-3.50
2022-12-18T19:21:59.622Z,-3.60
2022-12-18T19:24:26.907Z,-2.50
2022-12-18T19:26:58.153Z,-3.60
2022-12-18T19:29:25.488Z,-3.60
2022-12-18T19:31:52.469Z,-3.60
2022-12-18T19:34:19.023Z,-3.60
2022-12-18T19:36:45.785Z,-3.60
2022-12-18T19:39:14.262Z,-3.60
2022-12-18T19:41:42.623Z,-3.60
2022-12-18T19:44:11.805Z,-3.60
2022-12-18T19:46:41.683Z,-3.50
2022-12-18T19:49:09.909Z,-3.50
2022-12-18T19:51:37.040Z,-3.50
2022-12-18T19:54:04.306Z,-3.50
2022-12-18T19:56:32.636Z,-3.50
2022-12-18T19:58:59.834Z,-3.50
2022-12-18T20:01:27.111Z,-3.50
2022-12-18T20:03:54.644Z,-3.50
2022-12-18T20:06:30.188Z,-3.50
2022-12-18T20:09:00.134Z,-3.50
2022-12-18T20:11:27.633Z,-3.50
2022-12-18T20:13:54.514Z,-3.40
2022-12-18T20:16:21.075Z,-3.40
2022-12-18T20:18:48.362Z,-3.40
2022-12-18T20:21:15.698Z,-3.40
2022-12-18T20:26:30.548Z,-3.40
2022-12-18T20:31:45.096Z,-3.40
2022-12-18T20:34:12.078Z,-3.40
2022-12-18T20:36:39.927Z,-3.40
2022-12-18T20:39:08.826Z,-3.40
2022-12-18T20:41:37.973Z,-3.40
2022-12-18T20:44:06.241Z,-3.30
2022-12-18T20:46:37.890Z,-3.30
2022-12-18T20:51:53.029Z,-3.30
2022-12-18T20:54:19.783Z,-3.30
2022-12-18T20:56:46.311Z,-3.30
2022-12-18T20:59:13.253Z,-3.30
2022-12-18T21:01:45.279Z,-3.30
2022-12-18T21:04:15.936Z,-3.20
2022-12-18T21:06:49.443Z,-3.20
2022-12-18T21:09:18.860Z,-3.20
2022-12-18T21:12:04.648Z,-3.20
2022-12-18T21:14:31.123Z,-3.20
2022-12-18T21:17:00.730Z,-3.20
2022-12-18T21:19:28.504Z,-3.20
2022-12-18T21:21:56.398Z,-3.20
2022-12-18T21:24:23.700Z,-3.10
2022-12-18T21:26:51.032Z,-3.10
2022-12-18T21:29:29.761Z,-3.10
2022-12-18T21:31:56.871Z,-3.10
2022-12-18T21:34:27.798Z,-1.80
2022-12-18T21:36:55.584Z,-3.10
2022-12-18T21:39:22.645Z,-3.00
2022-12-18T21:42:08.367Z,-3.00
2022-12-18T21:44:40.120Z,-3.00
2022-12-18T21:47:22.326Z,-3.00
2022-12-18T21:49:50.466Z,-3.00
2022-12-18T21:52:17.349Z,-3.00
2022-12-18T21:54:44.216Z,-2.90
2022-12-18T21:57:13.164Z,-2.90
2022-12-18T21:59:40.550Z,-2.90
2022-12-18T22:02:10.867Z,-2.90
2022-12-18T22:04:37.476Z,-2.90
2022-12-18T22:07:05.067Z,-2.90
2022-12-18T22:09:32.286Z,-2.90
2022-12-18T22:11:59.192Z,-2.90
2022-12-18T22:14:25.661Z,-2.90
2022-12-18T22:16:52.870Z,-2.90
2022-12-18T22:19:20.082Z,-2.90
2022-12-18T22:21:48.392Z,-2.90
2022-12-18T22:24:14.861Z,-2.90
2022-12-18T22:26:42.030Z,-2.90
2022-12-18T22:29:40.886Z,-2.90
2022-12-18T22:32:08.801Z,-2.90
2022-12-18T22:34:38.475Z,-2.90
2022-12-18T22:37:05.584Z,-2.90
2022-12-18T22:39:32.235Z,-2.90
2022-12-18T22:41:59.170Z,-1.80
2022-12-18T22:44:26.466Z,-2.90
2022-12-18T22:47:05.351Z,-2.80
2022-12-18T22:49:34.840Z,-2.80
2022-12-18T22:52:03.129Z,-2.80
2022-12-18T22:54:30.021Z,-2.70
2022-12-18T22:56:56.748Z,-2.80
2022-12-18T22:59:24.056Z,-2.70
2022-12-18T23:01:57.138Z,-2.80
2022-12-18T23:04:31.194Z,-2.80
2022-12-18T23:07:03.040Z,-2.80
2022-12-18T23:09:29.513Z,-2.70
2022-12-18T23:11:55.985Z,-2.70
2022-12-18T23:14:22.950Z,-2.70
2022-12-18T23:16:49.893Z,-2.70
2022-12-18T23:19:18.760Z,-2.70
2022-12-18T23:21:45.657Z,-2.70
2022-12-18T23:24:12.554Z,-2.60
2022-12-18T23:26:39.043Z,-2.60
2022-12-18T23:29:05.957Z,-2.60
2022-12-18T23:31:33.703Z,-2.60
2022-12-18T23:34:01.005Z,-2.60
2022-12-18T23:36:28.271Z,-2.60
2022-12-18T23:38:58.034Z,-2.60
2022-12-18T23:41:26.603Z,-2.60
2022-12-18T23:43:53.124Z,-2.60
2022-12-18T23:46:21.625Z,-2.60
2022-12-18T23:48:48.460Z,-2.60
2022-12-18T23:51:16.059Z,-2.60
2022-12-18T23:53:42.887Z,-2.60
2022-12-18T23:56:10.201Z,-2.60
2022-12-18T23:58:37.657Z,-2.60
